createdAt,value
2023-02-22T00:04:35.642Z,8.87
2023-02-22T00:09:30.348Z,8.90
2023-02-22T00:14:26.470Z,10.03
2023-02-22T00:19:20.330Z,8.93
2023-02-22T00:24:23.942Z,8.93
2023-02-22T00:29:17.612Z,10.07
2023-02-22T00:34:10.990Z,10.00
2023-02-22T00:39:04.446Z,10.57
2023-02-22T00:43:59.116Z,9.93
2023-02-22T00:48:52.455Z,10.77
2023-02-22T00:53:45.799Z,11.37
2023-02-22T00:58:39.138Z,11.50
2023-02-22T01:03:35.315Z,11.87
2023-02-22T01:08:31.201Z,11.60
2023-02-22T01:13:24.614Z,10.97
2023-02-22T01:18:18.262Z,11.83
2023-02-22T01:23:13.861Z,17.80
2023-02-22T01:28:09.087Z,15.47
2023-02-22T01:33:04.458Z,14.40
2023-02-22T01:37:58.875Z,12.80
2023-02-22T01:42:58.573Z,11.23
2023-02-22T01:47:51.975Z,11.37
2023-02-22T01:52:45.387Z,11.20
2023-02-22T01:57:40.190Z,10.83
2023-02-22T02:02:34.929Z,11.90
2023-02-22T02:07:29.679Z,11.33
2023-02-22T02:12:24.763Z,11.87
2023-02-22T02:17:23.251Z,11.30
2023-02-22T02:22:41.224Z,10.80
2023-02-22T02:28:03.322Z,11.03
2023-02-22T02:33:06.538Z,10.57
2023-02-22T02:38:10.527Z,11.03
2023-02-22T02:43:25.049Z,11.37
2023-02-22T02:48:24.519Z,10.70
2023-02-22T02:53:24.083Z,10.57
2023-02-22T02:58:21.487Z,11.10
2023-02-22T03:04:12.094Z,10.90
2023-02-22T03:09:20.476Z,10.67
2023-02-22T03:14:24.244Z,11.60
2023-02-22T03:19:28.799Z,11.60
2023-02-22T03:24:31.257Z,10.40
2023-02-22T03:29:29.599Z,11.23
2023-02-22T03:34:30.451Z,11.60
2023-02-22T03:39:31.064Z,10.97
2023-02-22T03:44:30.465Z,10.63
2023-02-22T03:49:36.106Z,10.63
2023-02-22T03:54:30.759Z,10.20
2023-02-22T03:59:27.488Z,10.53
2023-02-22T04:04:21.424Z,10.53
2023-02-22T04:09:17.196Z,8.80
2023-02-22T04:14:10.723Z,10.10
2023-02-22T04:19:04.108Z,9.17
2023-02-22T04:23:57.378Z,9.23
2023-02-22T04:28:52.239Z,9.67
2023-02-22T04:33:45.681Z,9.70
2023-02-22T04:38:39.162Z,9.47
2023-02-22T04:43:32.478Z,10.10
2023-02-22T04:48:27.283Z,10.20
2023-02-22T04:53:20.537Z,10.80
2023-02-22T04:58:13.862Z,10.43
2023-02-22T05:03:07.176Z,9.80
2023-02-22T05:08:02.125Z,9.93
2023-02-22T05:12:55.397Z,10.07
2023-02-22T05:17:49.079Z,10.47
2023-02-22T05:22:42.375Z,10.20
2023-02-22T05:27:37.107Z,10.80
2023-02-22T05:32:30.457Z,11.23
2023-02-22T05:37:23.779Z,10.60
2023-02-22T05:42:17.030Z,11.37
2023-02-22T05:47:11.675Z,10.90
2023-02-22T05:52:05.219Z,12.37
2023-02-22T05:56:58.467Z,12.00
2023-02-22T06:01:51.748Z,11.27
2023-02-22T06:06:46.342Z,11.47
2023-02-22T06:11:39.614Z,11.07
2023-02-22T06:16:32.990Z,12.37
2023-02-22T06:21:26.973Z,11.97
2023-02-22T06:26:22.931Z,12.07
2023-02-22T06:31:16.643Z,12.47
2023-02-22T06:36:11.520Z,12.13
2023-02-22T06:41:04.872Z,13.83
2023-02-22T06:45:59.628Z,13.83
2023-02-22T06:50:52.944Z,13.27
2023-02-22T06:55:46.258Z,13.50
2023-02-22T07:00:39.576Z,14.27
2023-02-22T07:05:34.387Z,15.83
2023-02-22T07:10:33.459Z,15.77
2023-02-22T07:15:30.053Z,15.20
2023-02-22T07:20:25.539Z,17.87
2023-02-22T07:25:21.181Z,20.80
2023-02-22T07:30:21.174Z,19.97
2023-02-22T07:35:19.713Z,19.23
2023-02-22T07:40:13.942Z,17.50
2023-02-22T07:45:09.445Z,17.90
2023-02-22T07:50:02.758Z,18.97
2023-02-22T07:54:56.080Z,17.10
2023-02-22T07:59:49.380Z,17.63
2023-02-22T08:04:44.034Z,17.03
2023-02-22T08:09:37.339Z,19.00
2023-02-22T08:14:30.609Z,17.53
2023-02-22T08:19:23.946Z,17.80
2023-02-22T08:24:18.691Z,17.53
2023-02-22T08:29:11.947Z,17.70
2023-02-22T08:34:05.329Z,17.37
2023-02-22T08:38:58.680Z,19.73
2023-02-22T08:43:53.597Z,20.73
2023-02-22T08:48:52.892Z,19.57
2023-02-22T08:53:46.339Z,20.20
2023-02-22T08:58:39.661Z,19.53
2023-02-22T09:03:34.420Z,19.50
2023-02-22T09:08:27.757Z,21.03
2023-02-22T09:13:21.177Z,20.33
2023-02-22T09:18:18.088Z,19.67
2023-02-22T09:23:14.513Z,18.60
2023-02-22T09:28:08.274Z,18.53
2023-02-22T09:33:05.923Z,18.53
2023-02-22T09:38:01.458Z,17.07
2023-02-22T09:43:15.166Z,18.40
2023-02-22T09:48:21.120Z,18.03
2023-02-22T09:53:30.463Z,18.23
2023-02-22T09:58:33.487Z,16.60
2023-02-22T10:03:35.483Z,17.13
2023-02-22T10:08:34.395Z,17.30
2023-02-22T10:13:44.947Z,19.43
2023-02-22T10:19:22.561Z,18.13
2023-02-22T10:24:39.706Z,17.93
2023-02-22T10:29:41.842Z,17.70
2023-02-22T10:34:44.086Z,17.37
2023-02-22T10:39:41.755Z,19.07
2023-02-22T10:44:38.093Z,19.90
2023-02-22T10:49:39.518Z,19.83
2023-02-22T10:54:41.085Z,18.80
2023-02-22T10:59:39.549Z,16.43
2023-02-22T11:04:49.583Z,18.17
2023-02-22T11:09:53.259Z,18.43
2023-02-22T11:14:48.228Z,18.50
2023-02-22T11:19:49.707Z,17.50
2023-02-22T11:24:51.739Z,17.37
2023-02-22T11:29:50.932Z,17.93
2023-02-22T11:34:45.624Z,17.80
2023-02-22T11:39:39.071Z,17.10
2023-02-22T11:44:34.237Z,16.87
2023-02-22T11:49:38.548Z,17.33
2023-02-22T11:55:02.472Z,18.10
2023-02-22T12:00:16.706Z,18.40
2023-02-22T12:05:26.431Z,19.00
2023-02-22T12:10:47.100Z,18.83
2023-02-22T12:15:54.058Z,20.27
2023-02-22T12:20:53.526Z,19.43
2023-02-22T12:26:00.179Z,20.57
2023-02-22T12:31:02.465Z,20.43
2023-02-22T12:36:00.555Z,19.93
2023-02-22T12:41:04.601Z,20.80
2023-02-22T12:46:07.828Z,19.77
2023-02-22T12:51:16.429Z,18.47
2023-02-22T12:56:26.733Z,16.93
2023-02-22T13:01:25.692Z,16.60
2023-02-22T13:06:52.275Z,15.40
2023-02-22T13:12:00.876Z,15.30
2023-02-22T13:17:02.917Z,15.37
2023-02-22T13:22:05.470Z,16.90
2023-02-22T13:27:07.731Z,14.33
2023-02-22T13:32:23.487Z,14.10
2023-02-22T13:37:46.002Z,15.67
2023-02-22T13:43:07.528Z,18.43
2023-02-22T13:48:21.222Z,13.63
2023-02-22T13:53:22.580Z,11.90
2023-02-22T13:58:17.645Z,11.63
2023-02-22T14:03:41.884Z,9.87
2023-02-22T14:08:43.642Z,8.23
2023-02-22T14:14:17.741Z,8.07
2023-02-22T14:19:20.483Z,7.33
2023-02-22T14:24:18.890Z,7.13
2023-02-22T14:29:21.751Z,7.27
2023-02-22T14:34:17.477Z,7.33
2023-02-22T14:39:19.601Z,8.27
2023-02-22T14:44:14.746Z,7.87
2023-02-22T14:49:19.010Z,7.40
2023-02-22T14:54:26.015Z,6.23
2023-02-22T14:59:24.156Z,6.70
2023-02-22T15:04:25.726Z,6.80
2023-02-22T15:09:27.680Z,6.30
2023-02-22T15:14:26.683Z,6.57
2023-02-22T15:19:28.075Z,7.17
2023-02-22T15:24:26.676Z,6.80
2023-02-22T15:29:24.793Z,6.80
2023-02-22T15:34:27.089Z,7.17
2023-02-22T15:39:25.659Z,8.20
2023-02-22T15:44:23.718Z,6.50
2023-02-22T15:49:24.824Z,6.90
2023-02-22T15:54:27.182Z,6.80
2023-02-22T15:59:22.673Z,6.83
2023-02-22T16:04:20.456Z,7.07
2023-02-22T16:09:18.817Z,7.73
2023-02-22T16:14:29.610Z,7.87
2023-02-22T16:19:39.651Z,8.63
2023-02-22T16:24:37.564Z,8.97
2023-02-22T16:29:31.226Z,9.13
2023-02-22T16:34:24.580Z,9.53
2023-02-22T16:39:27.232Z,10.60
2023-02-22T16:44:23.156Z,10.10
2023-02-22T16:49:16.502Z,10.87
2023-02-22T16:54:15.158Z,11.50
2023-02-22T16:59:14.074Z,11.77
2023-02-22T17:04:17.881Z,11.60
2023-02-22T17:09:11.498Z,10.73
2023-02-22T17:14:05.502Z,11.37
2023-02-22T17:18:58.902Z,11.73
2023-02-22T17:23:53.664Z,12.17
2023-02-22T17:28:47.201Z,12.23
2023-02-22T17:33:40.686Z,12.50
2023-02-22T17:38:34.796Z,12.87
2023-02-22T17:43:30.166Z,12.47
2023-02-22T17:48:24.571Z,12.30
2023-02-22T17:53:21.881Z,12.60
2023-02-22T17:58:15.455Z,12.63
2023-02-22T18:03:15.711Z,12.40
2023-02-22T18:08:09.561Z,14.23
2023-02-22T18:13:04.114Z,14.43
2023-02-22T18:17:58.294Z,15.00
2023-02-22T18:22:52.911Z,13.30
2023-02-22T18:27:46.214Z,13.57
2023-02-22T18:32:39.609Z,14.33
2023-02-22T18:37:33.266Z,12.17
2023-02-22T18:42:29.549Z,13.93
2023-02-22T18:47:23.548Z,13.30
2023-02-22T18:52:16.921Z,13.90
2023-02-22T18:57:12.684Z,14.03
2023-02-22T19:02:08.649Z,13.60
2023-02-22T19:07:02.021Z,13.77
2023-02-22T19:11:55.396Z,13.80
2023-02-22T19:16:51.658Z,13.00
2023-02-22T19:21:46.358Z,13.60
2023-02-22T19:26:39.992Z,13.03
2023-02-22T19:31:34.663Z,13.70
2023-02-22T19:36:28.645Z,13.70
2023-02-22T19:41:24.514Z,14.73
2023-02-22T19:46:18.910Z,14.53
2023-02-22T19:51:15.157Z,14.50
2023-02-22T19:58:20.903Z,14.80
2023-02-22T20:01:33.275Z,16.20
2023-02-22T20:06:35.923Z,15.70
2023-02-22T20:11:29.924Z,14.83
2023-02-22T20:16:23.374Z,19.83
2023-02-22T20:21:22.957Z,16.67
2023-02-22T20:26:19.746Z,16.83
2023-02-22T20:31:17.182Z,15.20
2023-02-22T20:36:13.464Z,13.20
2023-02-22T20:41:09.524Z,14.73
2023-02-22T20:46:03.829Z,16.53
2023-02-22T20:50:57.429Z,14.80
2023-02-22T20:55:53.651Z,15.33
2023-02-22T21:00:48.479Z,14.90
2023-02-22T21:05:44.705Z,15.53
2023-02-22T21:10:43.148Z,16.40
2023-02-22T21:15:43.478Z,16.23
2023-02-22T21:20:40.831Z,16.63
2023-02-22T21:25:34.172Z,16.23
2023-02-22T21:30:28.325Z,16.23
2023-02-22T21:35:22.625Z,15.60
2023-02-22T21:40:20.206Z,15.97
2023-02-22T21:45:13.709Z,15.40
2023-02-22T21:50:10.344Z,16.00
2023-02-22T21:55:04.043Z,16.07
2023-02-22T21:59:58.749Z,15.47
2023-02-22T22:04:52.099Z,15.73
2023-02-22T22:09:45.498Z,15.90
2023-02-22T22:14:40.303Z,15.87
2023-02-22T22:19:40.390Z,14.33
2023-02-22T22:24:34.980Z,15.50
2023-02-22T22:29:28.667Z,15.70
2023-02-22T22:34:24.308Z,15.37
2023-02-22T22:39:21.134Z,15.73
2023-02-22T22:44:16.384Z,15.40
2023-02-22T22:49:11.877Z,17.00
2023-02-22T22:54:07.050Z,16.23
2023-02-22T22:59:12.026Z,16.93
2023-02-22T23:04:08.569Z,17.73
2023-02-22T23:09:11.754Z,18.73
2023-02-22T23:14:07.099Z,19.03
2023-02-22T23:19:00.609Z,18.73
2023-02-22T23:23:58.613Z,18.43
2023-02-22T23:28:52.523Z,19.97
2023-02-22T23:33:49.273Z,19.73
2023-02-22T23:38:43.493Z,18.77
2023-02-22T23:43:40.358Z,17.80
2023-02-22T23:48:35.832Z,18.93
2023-02-22T23:53:30.492Z,18.90
2023-02-22T23:58:26.872Z,17.90
